sensor_id;sensor_type;location;lat;lon;timestamp;P1;durP1;ratioP1;P2;durP2;ratioP2
21235;SDS011;10775;42.678;26.324;2024-02-21T00:00:44;14.30;;;7.75;;
21235;SDS011;10775;42.678;26.324;2024-02-21T00:03:10;14.10;;;7.93;;
21235;SDS011;10775;42.678;26.324;2024-02-21T00:05:35;13.88;;;7.97;;
21235;SDS011;10775;42.678;26.324;2024-02-21T00:08:01;14.32;;;7.75;;
21235;SDS011;10775;42.678;26.324;2024-02-21T00:10:28;15.25;;;7.85;;
21235;SDS011;10775;42.678;26.324;2024-02-21T00:12:54;14.07;;;8.05;;
21235;SDS011;10775;42.678;26.324;2024-02-21T00:15:19;18.48;;;8.73;;
21235;SDS011;10775;42.678;26.324;2024-02-21T00:17:45;16.17;;;8.73;;
21235;SDS011;10775;42.678;26.324;2024-02-21T00:20:11;16.98;;;8.20;;
21235;SDS011;10775;42.678;26.324;2024-02-21T00:22:36;14.07;;;8.02;;
21235;SDS011;10775;42.678;26.324;2024-02-21T00:25:02;17.38;;;8.60;;
21235;SDS011;10775;42.678;26.324;2024-02-21T00:27:28;13.85;;;8.00;;
21235;SDS011;10775;42.678;26.324;2024-02-21T00:29:53;15.13;;;8.27;;
21235;SDS011;10775;42.678;26.324;2024-02-21T00:32:18;15.90;;;8.40;;
21235;SDS011;10775;42.678;26.324;2024-02-21T00:34:44;14.88;;;7.95;;
21235;SDS011;10775;42.678;26.324;2024-02-21T00:37:09;11.77;;;7.18;;
21235;SDS011;10775;42.678;26.324;2024-02-21T00:39:35;13.52;;;7.72;;
21235;SDS011;10775;42.678;26.324;2024-02-21T00:42:02;13.05;;;8.18;;
21235;SDS011;10775;42.678;26.324;2024-02-21T00:44:27;14.88;;;8.10;;
21235;SDS011;10775;42.678;26.324;2024-02-21T00:46:53;13.77;;;7.75;;
21235;SDS011;10775;42.678;26.324;2024-02-21T00:49:18;14.32;;;7.95;;
21235;SDS011;10775;42.678;26.324;2024-02-21T00:51:44;14.15;;;8.13;;
21235;SDS011;10775;42.678;26.324;2024-02-21T00:54:09;14.43;;;8.18;;
21235;SDS011;10775;42.678;26.324;2024-02-21T00:56:35;13.00;;;7.97;;
21235;SDS011;10775;42.678;26.324;2024-02-21T00:59:00;14.52;;;7.43;;
21235;SDS011;10775;42.678;26.324;2024-02-21T01:01:25;15.18;;;7.95;;
21235;SDS011;10775;42.678;26.324;2024-02-21T01:03:51;14.23;;;7.85;;
21235;SDS011;10775;42.678;26.324;2024-02-21T01:06:20;15.65;;;7.97;;
21235;SDS011;10775;42.678;26.324;2024-02-21T01:08:46;14.90;;;8.10;;
21235;SDS011;10775;42.678;26.324;2024-02-21T01:11:13;13.43;;;7.57;;
21235;SDS011;10775;42.678;26.324;2024-02-21T01:13:39;14.45;;;7.53;;
21235;SDS011;10775;42.678;26.324;2024-02-21T01:16:04;13.95;;;7.95;;
21235;SDS011;10775;42.678;26.324;2024-02-21T01:18:31;14.18;;;7.28;;
21235;SDS011;10775;42.678;26.324;2024-02-21T01:20:57;13.85;;;7.43;;
21235;SDS011;10775;42.678;26.324;2024-02-21T01:23:23;14.82;;;7.90;;
21235;SDS011;10775;42.678;26.324;2024-02-21T01:25:48;12.63;;;7.20;;
21235;SDS011;10775;42.678;26.324;2024-02-21T01:28:13;13.77;;;7.50;;
21235;SDS011;10775;42.678;26.324;2024-02-21T01:30:39;15.40;;;7.90;;
21235;SDS011;10775;42.678;26.324;2024-02-21T01:33:04;14.60;;;7.22;;
21235;SDS011;10775;42.678;26.324;2024-02-21T01:35:30;13.07;;;7.78;;
21235;SDS011;10775;42.678;26.324;2024-02-21T01:37:55;13.90;;;7.47;;
21235;SDS011;10775;42.678;26.324;2024-02-21T01:40:21;15.18;;;7.68;;
21235;SDS011;10775;42.678;26.324;2024-02-21T01:42:46;13.50;;;7.32;;
21235;SDS011;10775;42.678;26.324;2024-02-21T01:45:13;13.10;;;7.38;;
21235;SDS011;10775;42.678;26.324;2024-02-21T01:47:39;13.43;;;7.30;;
21235;SDS011;10775;42.678;26.324;2024-02-21T01:50:05;15.05;;;7.63;;
21235;SDS011;10775;42.678;26.324;2024-02-21T01:52:31;14.15;;;7.13;;
21235;SDS011;10775;42.678;26.324;2024-02-21T01:54:58;13.15;;;7.40;;
21235;SDS011;10775;42.678;26.324;2024-02-21T01:57:25;12.98;;;7.45;;
21235;SDS011;10775;42.678;26.324;2024-02-21T01:59:51;13.60;;;7.85;;
21235;SDS011;10775;42.678;26.324;2024-02-21T02:02:17;14.38;;;7.78;;
21235;SDS011;10775;42.678;26.324;2024-02-21T02:04:43;15.15;;;7.70;;
21235;SDS011;10775;42.678;26.324;2024-02-21T02:07:10;13.10;;;7.13;;
21235;SDS011;10775;42.678;26.324;2024-02-21T02:09:35;14.57;;;7.65;;
21235;SDS011;10775;42.678;26.324;2024-02-21T02:12:01;12.75;;;7.35;;
21235;SDS011;10775;42.678;26.324;2024-02-21T02:14:27;12.05;;;7.35;;
21235;SDS011;10775;42.678;26.324;2024-02-21T02:16:53;13.27;;;7.53;;
21235;SDS011;10775;42.678;26.324;2024-02-21T02:19:18;12.52;;;7.43;;
21235;SDS011;10775;42.678;26.324;2024-02-21T02:21:49;13.00;;;7.30;;
21235;SDS011;10775;42.678;26.324;2024-02-21T02:24:21;12.05;;;6.95;;
21235;SDS011;10775;42.678;26.324;2024-02-21T02:26:49;13.13;;;7.22;;
21235;SDS011;10775;42.678;26.324;2024-02-21T02:29:14;14.70;;;7.88;;
21235;SDS011;10775;42.678;26.324;2024-02-21T02:31:40;12.93;;;7.10;;
21235;SDS011;10775;42.678;26.324;2024-02-21T02:34:05;15.07;;;7.57;;
21235;SDS011;10775;42.678;26.324;2024-02-21T02:36:33;13.80;;;7.55;;
21235;SDS011;10775;42.678;26.324;2024-02-21T02:38:59;11.35;;;7.20;;
21235;SDS011;10775;42.678;26.324;2024-02-21T02:41:25;12.93;;;7.38;;
21235;SDS011;10775;42.678;26.324;2024-02-21T02:43:50;14.65;;;7.90;;
21235;SDS011;10775;42.678;26.324;2024-02-21T02:46:16;14.07;;;7.72;;
21235;SDS011;10775;42.678;26.324;2024-02-21T02:48:41;10.88;;;6.57;;
21235;SDS011;10775;42.678;26.324;2024-02-21T02:51:07;12.43;;;7.13;;
21235;SDS011;10775;42.678;26.324;2024-02-21T02:53:32;16.67;;;7.57;;
21235;SDS011;10775;42.678;26.324;2024-02-21T02:55:57;15.07;;;7.45;;
21235;SDS011;10775;42.678;26.324;2024-02-21T02:58:23;13.43;;;7.60;;
21235;SDS011;10775;42.678;26.324;2024-02-21T03:00:48;15.35;;;7.68;;
21235;SDS011;10775;42.678;26.324;2024-02-21T03:03:14;14.68;;;8.20;;
21235;SDS011;10775;42.678;26.324;2024-02-21T03:05:39;12.63;;;6.75;;
21235;SDS011;10775;42.678;26.324;2024-02-21T03:08:05;13.75;;;6.93;;
21235;SDS011;10775;42.678;26.324;2024-02-21T03:10:34;14.20;;;7.43;;
21235;SDS011;10775;42.678;26.324;2024-02-21T03:13:00;16.05;;;7.43;;
21235;SDS011;10775;42.678;26.324;2024-02-21T03:15:25;12.60;;;7.00;;
21235;SDS011;10775;42.678;26.324;2024-02-21T03:17:51;12.50;;;6.68;;
21235;SDS011;10775;42.678;26.324;2024-02-21T03:20:16;13.02;;;7.38;;
21235;SDS011;10775;42.678;26.324;2024-02-21T03:22:42;13.82;;;8.10;;
21235;SDS011;10775;42.678;26.324;2024-02-21T03:25:08;13.10;;;7.45;;
21235;SDS011;10775;42.678;26.324;2024-02-21T03:27:34;13.90;;;7.15;;
21235;SDS011;10775;42.678;26.324;2024-02-21T03:30:00;12.75;;;7.13;;
21235;SDS011;10775;42.678;26.324;2024-02-21T03:32:25;14.57;;;6.95;;
21235;SDS011;10775;42.678;26.324;2024-02-21T03:34:51;15.32;;;7.20;;
21235;SDS011;10775;42.678;26.324;2024-02-21T03:37:16;12.30;;;6.97;;
21235;SDS011;10775;42.678;26.324;2024-02-21T03:39:42;14.75;;;7.50;;
21235;SDS011;10775;42.678;26.324;2024-02-21T03:42:07;12.60;;;7.22;;
21235;SDS011;10775;42.678;26.324;2024-02-21T03:44:33;12.38;;;6.97;;
21235;SDS011;10775;42.678;26.324;2024-02-21T03:46:59;12.25;;;7.43;;
21235;SDS011;10775;42.678;26.324;2024-02-21T03:49:25;13.43;;;6.97;;
21235;SDS011;10775;42.678;26.324;2024-02-21T03:51:51;12.43;;;6.70;;
21235;SDS011;10775;42.678;26.324;2024-02-21T03:54:16;12.90;;;7.20;;
21235;SDS011;10775;42.678;26.324;2024-02-21T03:56:42;12.40;;;6.72;;
21235;SDS011;10775;42.678;26.324;2024-02-21T03:59:07;13.48;;;7.35;;
21235;SDS011;10775;42.678;26.324;2024-02-21T04:01:36;13.50;;;7.25;;
21235;SDS011;10775;42.678;26.324;2024-02-21T04:04:01;15.13;;;7.43;;
21235;SDS011;10775;42.678;26.324;2024-02-21T04:06:27;13.00;;;7.13;;
21235;SDS011;10775;42.678;26.324;2024-02-21T04:08:53;14.95;;;7.45;;
21235;SDS011;10775;42.678;26.324;2024-02-21T04:11:19;14.07;;;7.03;;
21235;SDS011;10775;42.678;26.324;2024-02-21T04:13:44;15.65;;;7.78;;
21235;SDS011;10775;42.678;26.324;2024-02-21T04:16:13;14.50;;;7.07;;
21235;SDS011;10775;42.678;26.324;2024-02-21T04:18:39;12.40;;;6.75;;
21235;SDS011;10775;42.678;26.324;2024-02-21T04:21:05;12.15;;;6.55;;
21235;SDS011;10775;42.678;26.324;2024-02-21T04:23:30;14.45;;;7.95;;
21235;SDS011;10775;42.678;26.324;2024-02-21T04:25:56;14.05;;;7.60;;
21235;SDS011;10775;42.678;26.324;2024-02-21T04:28:21;12.73;;;6.55;;
21235;SDS011;10775;42.678;26.324;2024-02-21T04:30:47;17.05;;;7.57;;
21235;SDS011;10775;42.678;26.324;2024-02-21T04:33:12;11.88;;;6.70;;
21235;SDS011;10775;42.678;26.324;2024-02-21T04:35:38;11.23;;;6.40;;
21235;SDS011;10775;42.678;26.324;2024-02-21T04:38:04;12.65;;;7.25;;
21235;SDS011;10775;42.678;26.324;2024-02-21T04:40:30;13.57;;;7.07;;
21235;SDS011;10775;42.678;26.324;2024-02-21T04:42:56;14.82;;;7.80;;
21235;SDS011;10775;42.678;26.324;2024-02-21T04:45:22;11.00;;;6.50;;
21235;SDS011;10775;42.678;26.324;2024-02-21T04:47:47;12.82;;;7.57;;
21235;SDS011;10775;42.678;26.324;2024-02-21T04:50:13;14.05;;;6.90;;
21235;SDS011;10775;42.678;26.324;2024-02-21T04:52:38;14.30;;;7.15;;
21235;SDS011;10775;42.678;26.324;2024-02-21T04:55:04;12.80;;;7.20;;
21235;SDS011;10775;42.678;26.324;2024-02-21T04:57:29;12.35;;;6.78;;
21235;SDS011;10775;42.678;26.324;2024-02-21T04:59:55;13.85;;;7.13;;
21235;SDS011;10775;42.678;26.324;2024-02-21T05:02:20;14.00;;;7.07;;
21235;SDS011;10775;42.678;26.324;2024-02-21T05:04:47;14.25;;;7.40;;
21235;SDS011;10775;42.678;26.324;2024-02-21T05:07:13;12.20;;;6.80;;
21235;SDS011;10775;42.678;26.324;2024-02-21T05:09:38;13.00;;;6.82;;
21235;SDS011;10775;42.678;26.324;2024-02-21T05:12:04;15.13;;;8.05;;
21235;SDS011;10775;42.678;26.324;2024-02-21T05:14:29;16.02;;;8.10;;
21235;SDS011;10775;42.678;26.324;2024-02-21T05:16:55;16.13;;;8.02;;
21235;SDS011;10775;42.678;26.324;2024-02-21T05:19:20;13.00;;;7.68;;
21235;SDS011;10775;42.678;26.324;2024-02-21T05:21:46;13.55;;;7.47;;
21235;SDS011;10775;42.678;26.324;2024-02-21T05:24:11;14.27;;;7.38;;
21235;SDS011;10775;42.678;26.324;2024-02-21T05:26:37;12.50;;;6.85;;
21235;SDS011;10775;42.678;26.324;2024-02-21T05:29:03;13.30;;;7.43;;
21235;SDS011;10775;42.678;26.324;2024-02-21T05:31:43;15.57;;;7.35;;
21235;SDS011;10775;42.678;26.324;2024-02-21T05:34:17;14.48;;;7.55;;
21235;SDS011;10775;42.678;26.324;2024-02-21T05:36:43;14.50;;;7.45;;
21235;SDS011;10775;42.678;26.324;2024-02-21T05:39:09;12.75;;;7.30;;
21235;SDS011;10775;42.678;26.324;2024-02-21T05:41:34;14.23;;;7.97;;
21235;SDS011;10775;42.678;26.324;2024-02-21T05:44:00;14.45;;;7.68;;
21235;SDS011;10775;42.678;26.324;2024-02-21T05:46:25;13.77;;;7.80;;
21235;SDS011;10775;42.678;26.324;2024-02-21T05:48:50;18.30;;;7.90;;
21235;SDS011;10775;42.678;26.324;2024-02-21T05:51:16;16.33;;;7.75;;
21235;SDS011;10775;42.678;26.324;2024-02-21T05:53:41;14.23;;;7.93;;
21235;SDS011;10775;42.678;26.324;2024-02-21T05:56:13;15.18;;;7.90;;
21235;SDS011;10775;42.678;26.324;2024-02-21T05:58:39;15.93;;;8.27;;
21235;SDS011;10775;42.678;26.324;2024-02-21T06:01:05;16.45;;;8.10;;
21235;SDS011;10775;42.678;26.324;2024-02-21T06:03:32;14.73;;;7.78;;
21235;SDS011;10775;42.678;26.324;2024-02-21T06:05:58;13.50;;;7.88;;
21235;SDS011;10775;42.678;26.324;2024-02-21T06:08:25;16.40;;;8.02;;
21235;SDS011;10775;42.678;26.324;2024-02-21T06:10:50;15.98;;;8.80;;
21235;SDS011;10775;42.678;26.324;2024-02-21T06:13:25;15.43;;;7.97;;
21235;SDS011;10775;42.678;26.324;2024-02-21T06:15:51;15.27;;;8.40;;
21235;SDS011;10775;42.678;26.324;2024-02-21T06:18:19;13.48;;;7.70;;
21235;SDS011;10775;42.678;26.324;2024-02-21T06:20:45;16.80;;;8.15;;
21235;SDS011;10775;42.678;26.324;2024-02-21T06:23:15;13.77;;;7.63;;
21235;SDS011;10775;42.678;26.324;2024-02-21T06:28:07;16.00;;;8.10;;
21235;SDS011;10775;42.678;26.324;2024-02-21T06:30:33;17.60;;;9.07;;
21235;SDS011;10775;42.678;26.324;2024-02-21T06:32:58;22.88;;;10.68;;
21235;SDS011;10775;42.678;26.324;2024-02-21T06:35:24;29.60;;;14.57;;
21235;SDS011;10775;42.678;26.324;2024-02-21T06:37:50;20.17;;;9.85;;
21235;SDS011;10775;42.678;26.324;2024-02-21T06:40:20;23.67;;;11.30;;
21235;SDS011;10775;42.678;26.324;2024-02-21T06:42:47;20.73;;;9.77;;
21235;SDS011;10775;42.678;26.324;2024-02-21T06:45:13;21.70;;;11.20;;
21235;SDS011;10775;42.678;26.324;2024-02-21T06:47:38;19.80;;;9.48;;
21235;SDS011;10775;42.678;26.324;2024-02-21T06:50:04;17.58;;;9.63;;
21235;SDS011;10775;42.678;26.324;2024-02-21T06:52:29;19.33;;;9.32;;
21235;SDS011;10775;42.678;26.324;2024-02-21T06:54:56;18.05;;;9.68;;
21235;SDS011;10775;42.678;26.324;2024-02-21T06:57:21;18.10;;;8.88;;
21235;SDS011;10775;42.678;26.324;2024-02-21T06:59:47;25.13;;;12.27;;
21235;SDS011;10775;42.678;26.324;2024-02-21T07:02:12;32.28;;;15.73;;
21235;SDS011;10775;42.678;26.324;2024-02-21T07:04:38;22.75;;;10.15;;
21235;SDS011;10775;42.678;26.324;2024-02-21T07:07:03;23.00;;;10.45;;
21235;SDS011;10775;42.678;26.324;2024-02-21T07:09:29;20.05;;;10.15;;
21235;SDS011;10775;42.678;26.324;2024-02-21T07:11:58;21.45;;;9.98;;
21235;SDS011;10775;42.678;26.324;2024-02-21T07:14:24;18.80;;;10.73;;
21235;SDS011;10775;42.678;26.324;2024-02-21T07:16:50;16.83;;;9.57;;
21235;SDS011;10775;42.678;26.324;2024-02-21T07:19:15;20.65;;;10.07;;
21235;SDS011;10775;42.678;26.324;2024-02-21T07:21:41;21.25;;;11.07;;
21235;SDS011;10775;42.678;26.324;2024-02-21T07:24:07;18.92;;;9.60;;
21235;SDS011;10775;42.678;26.324;2024-02-21T07:26:34;17.35;;;9.35;;
21235;SDS011;10775;42.678;26.324;2024-02-21T07:29:00;19.02;;;9.93;;
21235;SDS011;10775;42.678;26.324;2024-02-21T07:31:25;17.98;;;9.27;;
21235;SDS011;10775;42.678;26.324;2024-02-21T07:33:51;19.42;;;10.15;;
21235;SDS011;10775;42.678;26.324;2024-02-21T07:36:23;20.42;;;10.70;;
21235;SDS011;10775;42.678;26.324;2024-02-21T07:38:53;37.03;;;18.13;;
21235;SDS011;10775;42.678;26.324;2024-02-21T07:41:18;23.85;;;12.65;;
21235;SDS011;10775;42.678;26.324;2024-02-21T07:43:44;20.48;;;11.68;;
21235;SDS011;10775;42.678;26.324;2024-02-21T07:46:09;19.58;;;11.45;;
21235;SDS011;10775;42.678;26.324;2024-02-21T07:48:35;27.30;;;12.82;;
21235;SDS011;10775;42.678;26.324;2024-02-21T07:51:00;20.73;;;10.65;;
21235;SDS011;10775;42.678;26.324;2024-02-21T07:53:26;23.65;;;10.85;;
21235;SDS011;10775;42.678;26.324;2024-02-21T07:55:51;23.15;;;10.75;;
21235;SDS011;10775;42.678;26.324;2024-02-21T07:58:16;23.77;;;10.75;;
21235;SDS011;10775;42.678;26.324;2024-02-21T08:00:42;25.13;;;12.63;;
21235;SDS011;10775;42.678;26.324;2024-02-21T08:03:07;27.25;;;12.63;;
21235;SDS011;10775;42.678;26.324;2024-02-21T08:05:36;22.73;;;12.15;;
21235;SDS011;10775;42.678;26.324;2024-02-21T08:08:02;19.88;;;9.38;;
21235;SDS011;10775;42.678;26.324;2024-02-21T08:10:28;21.17;;;9.63;;
21235;SDS011;10775;42.678;26.324;2024-02-21T08:12:54;16.10;;;8.38;;
21235;SDS011;10775;42.678;26.324;2024-02-21T08:15:19;18.48;;;10.52;;
21235;SDS011;10775;42.678;26.324;2024-02-21T08:17:49;20.83;;;10.35;;
21235;SDS011;10775;42.678;26.324;2024-02-21T08:20:14;22.98;;;12.52;;
21235;SDS011;10775;42.678;26.324;2024-02-21T08:22:40;16.90;;;9.85;;
21235;SDS011;10775;42.678;26.324;2024-02-21T08:25:06;21.58;;;11.15;;
21235;SDS011;10775;42.678;26.324;2024-02-21T08:27:31;21.92;;;11.40;;
21235;SDS011;10775;42.678;26.324;2024-02-21T08:29:57;19.73;;;11.63;;
21235;SDS011;10775;42.678;26.324;2024-02-21T08:32:22;20.45;;;11.65;;
21235;SDS011;10775;42.678;26.324;2024-02-21T08:34:47;21.02;;;12.88;;
21235;SDS011;10775;42.678;26.324;2024-02-21T08:37:13;17.48;;;10.25;;
21235;SDS011;10775;42.678;26.324;2024-02-21T08:39:38;14.75;;;10.10;;
21235;SDS011;10775;42.678;26.324;2024-02-21T08:42:04;17.33;;;10.23;;
21235;SDS011;10775;42.678;26.324;2024-02-21T08:44:30;16.88;;;9.73;;
21235;SDS011;10775;42.678;26.324;2024-02-21T08:46:55;21.38;;;11.05;;
21235;SDS011;10775;42.678;26.324;2024-02-21T08:49:21;17.77;;;10.63;;
21235;SDS011;10775;42.678;26.324;2024-02-21T08:51:46;30.08;;;15.75;;
21235;SDS011;10775;42.678;26.324;2024-02-21T08:54:12;17.25;;;10.82;;
21235;SDS011;10775;42.678;26.324;2024-02-21T08:56:37;20.52;;;11.55;;
21235;SDS011;10775;42.678;26.324;2024-02-21T08:59:03;18.35;;;11.25;;
21235;SDS011;10775;42.678;26.324;2024-02-21T09:01:28;20.98;;;11.95;;
21235;SDS011;10775;42.678;26.324;2024-02-21T09:03:54;18.48;;;11.38;;
21235;SDS011;10775;42.678;26.324;2024-02-21T09:06:21;21.30;;;12.13;;
21235;SDS011;10775;42.678;26.324;2024-02-21T09:08:47;20.50;;;12.00;;
21235;SDS011;10775;42.678;26.324;2024-02-21T09:11:12;22.00;;;12.02;;
21235;SDS011;10775;42.678;26.324;2024-02-21T09:13:38;22.63;;;12.52;;
21235;SDS011;10775;42.678;26.324;2024-02-21T09:16:03;36.17;;;15.43;;
21235;SDS011;10775;42.678;26.324;2024-02-21T09:18:29;21.65;;;11.75;;
21235;SDS011;10775;42.678;26.324;2024-02-21T09:20:54;19.85;;;12.20;;
21235;SDS011;10775;42.678;26.324;2024-02-21T09:23:20;20.05;;;11.90;;
21235;SDS011;10775;42.678;26.324;2024-02-21T09:25:45;27.90;;;11.75;;
21235;SDS011;10775;42.678;26.324;2024-02-21T09:28:12;24.63;;;14.00;;
21235;SDS011;10775;42.678;26.324;2024-02-21T09:30:38;28.08;;;14.48;;
21235;SDS011;10775;42.678;26.324;2024-02-21T09:33:04;27.08;;;14.80;;
21235;SDS011;10775;42.678;26.324;2024-02-21T09:35:30;29.88;;;16.60;;
21235;SDS011;10775;42.678;26.324;2024-02-21T09:37:55;33.83;;;17.13;;
21235;SDS011;10775;42.678;26.324;2024-02-21T09:40:21;37.13;;;17.70;;
21235;SDS011;10775;42.678;26.324;2024-02-21T09:42:47;28.67;;;16.15;;
21235;SDS011;10775;42.678;26.324;2024-02-21T09:45:21;28.65;;;13.57;;
21235;SDS011;10775;42.678;26.324;2024-02-21T09:50:26;27.88;;;14.35;;
21235;SDS011;10775;42.678;26.324;2024-02-21T09:52:52;34.58;;;16.42;;
21235;SDS011;10775;42.678;26.324;2024-02-21T09:55:20;28.23;;;14.65;;
21235;SDS011;10775;42.678;26.324;2024-02-21T09:57:46;28.23;;;13.32;;
21235;SDS011;10775;42.678;26.324;2024-02-21T10:00:13;33.45;;;16.35;;
21235;SDS011;10775;42.678;26.324;2024-02-21T10:02:46;26.10;;;15.80;;
21235;SDS011;10775;42.678;26.324;2024-02-21T10:05:13;29.02;;;12.77;;
21235;SDS011;10775;42.678;26.324;2024-02-21T10:07:39;27.75;;;13.85;;
21235;SDS011;10775;42.678;26.324;2024-02-21T10:10:05;24.67;;;13.48;;
21235;SDS011;10775;42.678;26.324;2024-02-21T10:12:31;29.35;;;15.60;;
21235;SDS011;10775;42.678;26.324;2024-02-21T10:15:03;22.13;;;12.18;;
21235;SDS011;10775;42.678;26.324;2024-02-21T10:17:31;26.25;;;13.98;;
21235;SDS011;10775;42.678;26.324;2024-02-21T10:20:09;29.27;;;14.30;;
21235;SDS011;10775;42.678;26.324;2024-02-21T10:22:34;28.52;;;14.60;;
21235;SDS011;10775;42.678;26.324;2024-02-21T10:25:10;25.75;;;13.32;;
21235;SDS011;10775;42.678;26.324;2024-02-21T10:27:41;27.67;;;15.45;;
21235;SDS011;10775;42.678;26.324;2024-02-21T10:30:13;24.95;;;12.48;;
21235;SDS011;10775;42.678;26.324;2024-02-21T10:32:54;27.42;;;12.85;;
21235;SDS011;10775;42.678;26.324;2024-02-21T10:35:28;26.38;;;13.73;;
21235;SDS011;10775;42.678;26.324;2024-02-21T10:37:55;26.52;;;13.43;;
21235;SDS011;10775;42.678;26.324;2024-02-21T10:40:22;25.45;;;11.98;;
21235;SDS011;10775;42.678;26.324;2024-02-21T10:42:49;22.85;;;12.00;;
21235;SDS011;10775;42.678;26.324;2024-02-21T10:45:22;23.27;;;13.20;;
21235;SDS011;10775;42.678;26.324;2024-02-21T10:47:51;22.17;;;12.60;;
21235;SDS011;10775;42.678;26.324;2024-02-21T10:50:21;23.10;;;12.05;;
21235;SDS011;10775;42.678;26.324;2024-02-21T10:55:38;18.73;;;11.07;;
21235;SDS011;10775;42.678;26.324;2024-02-21T10:58:09;26.63;;;14.18;;
21235;SDS011;10775;42.678;26.324;2024-02-21T11:00:36;22.77;;;13.55;;
21235;SDS011;10775;42.678;26.324;2024-02-21T11:03:02;22.35;;;11.50;;
21235;SDS011;10775;42.678;26.324;2024-02-21T11:05:28;19.65;;;11.70;;
21235;SDS011;10775;42.678;26.324;2024-02-21T11:07:55;21.98;;;11.82;;
21235;SDS011;10775;42.678;26.324;2024-02-21T11:10:24;21.75;;;11.50;;
21235;SDS011;10775;42.678;26.324;2024-02-21T11:12:54;18.43;;;11.30;;
21235;SDS011;10775;42.678;26.324;2024-02-21T11:15:30;17.20;;;10.32;;
21235;SDS011;10775;42.678;26.324;2024-02-21T11:17:56;18.73;;;10.80;;
21235;SDS011;10775;42.678;26.324;2024-02-21T11:20:31;18.95;;;10.98;;
21235;SDS011;10775;42.678;26.324;2024-02-21T11:22:58;19.33;;;10.65;;
21235;SDS011;10775;42.678;26.324;2024-02-21T11:25:24;18.65;;;10.18;;
21235;SDS011;10775;42.678;26.324;2024-02-21T11:27:50;16.70;;;10.98;;
21235;SDS011;10775;42.678;26.324;2024-02-21T11:30:27;15.93;;;10.32;;
21235;SDS011;10775;42.678;26.324;2024-02-21T11:33:05;20.63;;;10.27;;
21235;SDS011;10775;42.678;26.324;2024-02-21T11:35:32;18.00;;;11.00;;
21235;SDS011;10775;42.678;26.324;2024-02-21T11:38:08;15.45;;;10.20;;
21235;SDS011;10775;42.678;26.324;2024-02-21T11:40:35;17.48;;;10.38;;
21235;SDS011;10775;42.678;26.324;2024-02-21T11:43:01;17.15;;;10.35;;
21235;SDS011;10775;42.678;26.324;2024-02-21T11:45:26;16.15;;;10.27;;
21235;SDS011;10775;42.678;26.324;2024-02-21T11:47:52;19.02;;;10.05;;
21235;SDS011;10775;42.678;26.324;2024-02-21T11:50:17;13.88;;;9.18;;
21235;SDS011;10775;42.678;26.324;2024-02-21T11:52:44;15.43;;;10.10;;
21235;SDS011;10775;42.678;26.324;2024-02-21T11:55:10;15.45;;;10.00;;
21235;SDS011;10775;42.678;26.324;2024-02-21T11:57:37;15.85;;;10.02;;
21235;SDS011;10775;42.678;26.324;2024-02-21T12:00:17;15.75;;;10.18;;
21235;SDS011;10775;42.678;26.324;2024-02-21T12:02:47;20.02;;;9.95;;
21235;SDS011;10775;42.678;26.324;2024-02-21T12:05:12;15.77;;;10.10;;
21235;SDS011;10775;42.678;26.324;2024-02-21T12:07:38;18.90;;;11.30;;
21235;SDS011;10775;42.678;26.324;2024-02-21T12:10:11;19.67;;;10.75;;
21235;SDS011;10775;42.678;26.324;2024-02-21T12:12:38;23.38;;;14.57;;
21235;SDS011;10775;42.678;26.324;2024-02-21T12:15:04;15.90;;;11.38;;
21235;SDS011;10775;42.678;26.324;2024-02-21T12:17:32;14.90;;;10.13;;
21235;SDS011;10775;42.678;26.324;2024-02-21T12:19:59;14.25;;;9.30;;
21235;SDS011;10775;42.678;26.324;2024-02-21T12:22:25;15.48;;;9.77;;
21235;SDS011;10775;42.678;26.324;2024-02-21T12:24:50;14.70;;;9.55;;
21235;SDS011;10775;42.678;26.324;2024-02-21T12:27:16;15.77;;;9.70;;
21235;SDS011;10775;42.678;26.324;2024-02-21T12:29:41;13.88;;;8.88;;
21235;SDS011;10775;42.678;26.324;2024-02-21T12:32:07;14.23;;;9.35;;
21235;SDS011;10775;42.678;26.324;2024-02-21T12:34:32;14.73;;;8.98;;
21235;SDS011;10775;42.678;26.324;2024-02-21T12:36:58;14.80;;;9.73;;
21235;SDS011;10775;42.678;26.324;2024-02-21T12:39:24;14.35;;;9.52;;
21235;SDS011;10775;42.678;26.324;2024-02-21T12:41:49;14.45;;;9.65;;
21235;SDS011;10775;42.678;26.324;2024-02-21T12:44:15;18.80;;;10.90;;
21235;SDS011;10775;42.678;26.324;2024-02-21T12:46:42;17.65;;;10.55;;
21235;SDS011;10775;42.678;26.324;2024-02-21T12:49:07;17.38;;;10.60;;
21235;SDS011;10775;42.678;26.324;2024-02-21T12:51:33;15.00;;;9.18;;
21235;SDS011;10775;42.678;26.324;2024-02-21T12:53:59;17.25;;;10.15;;
21235;SDS011;10775;42.678;26.324;2024-02-21T12:56:25;13.05;;;8.82;;
21235;SDS011;10775;42.678;26.324;2024-02-21T12:58:52;14.55;;;9.98;;
21235;SDS011;10775;42.678;26.324;2024-02-21T13:01:18;16.63;;;11.15;;
21235;SDS011;10775;42.678;26.324;2024-02-21T13:03:44;13.48;;;9.60;;
21235;SDS011;10775;42.678;26.324;2024-02-21T13:06:11;16.35;;;12.25;;
21235;SDS011;10775;42.678;26.324;2024-02-21T13:08:37;13.57;;;8.95;;
21235;SDS011;10775;42.678;26.324;2024-02-21T13:11:03;15.23;;;9.02;;
21235;SDS011;10775;42.678;26.324;2024-02-21T13:13:29;17.02;;;9.63;;
21235;SDS011;10775;42.678;26.324;2024-02-21T13:15:56;14.23;;;9.68;;
21235;SDS011;10775;42.678;26.324;2024-02-21T13:18:22;11.65;;;8.27;;
21235;SDS011;10775;42.678;26.324;2024-02-21T13:20:47;14.88;;;9.55;;
21235;SDS011;10775;42.678;26.324;2024-02-21T13:23:13;12.95;;;8.30;;
21235;SDS011;10775;42.678;26.324;2024-02-21T13:25:38;19.10;;;8.98;;
21235;SDS011;10775;42.678;26.324;2024-02-21T13:28:04;16.00;;;9.48;;
21235;SDS011;10775;42.678;26.324;2024-02-21T13:30:30;15.90;;;8.93;;
21235;SDS011;10775;42.678;26.324;2024-02-21T13:32:55;13.85;;;8.88;;
21235;SDS011;10775;42.678;26.324;2024-02-21T13:35:21;14.88;;;9.07;;
21235;SDS011;10775;42.678;26.324;2024-02-21T13:37:46;13.55;;;9.07;;
21235;SDS011;10775;42.678;26.324;2024-02-21T13:40:12;14.45;;;8.60;;
21235;SDS011;10775;42.678;26.324;2024-02-21T13:42:38;12.77;;;8.68;;
21235;SDS011;10775;42.678;26.324;2024-02-21T13:45:05;15.30;;;9.27;;
21235;SDS011;10775;42.678;26.324;2024-02-21T13:47:31;14.60;;;9.43;;
21235;SDS011;10775;42.678;26.324;2024-02-21T13:49:58;13.82;;;9.45;;
21235;SDS011;10775;42.678;26.324;2024-02-21T13:52:23;13.88;;;8.93;;
21235;SDS011;10775;42.678;26.324;2024-02-21T13:54:51;13.38;;;8.45;;
21235;SDS011;10775;42.678;26.324;2024-02-21T13:57:19;15.00;;;9.30;;
21235;SDS011;10775;42.678;26.324;2024-02-21T13:59:45;14.68;;;9.45;;
21235;SDS011;10775;42.678;26.324;2024-02-21T14:02:10;15.23;;;8.60;;
21235;SDS011;10775;42.678;26.324;2024-02-21T14:04:35;13.90;;;8.50;;
21235;SDS011;10775;42.678;26.324;2024-02-21T14:07:01;16.42;;;10.02;;
21235;SDS011;10775;42.678;26.324;2024-02-21T14:09:27;14.07;;;10.07;;
21235;SDS011;10775;42.678;26.324;2024-02-21T14:11:54;19.10;;;11.02;;
21235;SDS011;10775;42.678;26.324;2024-02-21T14:14:20;16.00;;;9.85;;
21235;SDS011;10775;42.678;26.324;2024-02-21T14:16:45;14.65;;;10.10;;
21235;SDS011;10775;42.678;26.324;2024-02-21T14:19:12;15.88;;;9.55;;